createdAt,value
2023-02-24T00:02:20.223Z,77.16
2023-02-24T00:05:23.805Z,77.15
2023-02-24T00:08:35.470Z,76.92
2023-02-24T00:11:39.220Z,77.48
2023-02-24T00:14:43.470Z,77.67
2023-02-24T00:17:48.802Z,78.39
2023-02-24T00:20:53.328Z,77.88
2023-02-24T00:23:59.315Z,76.63
2023-02-24T00:27:07.616Z,76.97
2023-02-24T00:30:12.085Z,76.65
2023-02-24T00:33:16.029Z,76.58
2023-02-24T00:36:23.987Z,76.16
2023-02-24T00:39:33.492Z,76.14
2023-02-24T00:42:36.140Z,75.69
2023-02-24T00:45:39.136Z,76.06
2023-02-24T00:48:42.162Z,75.75
2023-02-24T00:51:46.596Z,76.92
2023-02-24T00:54:51.170Z,76.17
2023-02-24T00:57:54.255Z,76.88
2023-02-24T01:00:57.989Z,76.79
2023-02-24T01:04:01.659Z,75.57
2023-02-24T01:07:10.168Z,75.90
2023-02-24T01:10:14.271Z,76.24
2023-02-24T01:13:15.960Z,77.58
2023-02-24T01:16:19.622Z,76.42
2023-02-24T01:19:23.091Z,76.12
2023-02-24T01:22:25.756Z,76.10
2023-02-24T01:25:31.307Z,76.12
2023-02-24T01:28:33.857Z,77.07
2023-02-24T01:31:38.362Z,77.84
2023-02-24T01:34:42.435Z,77.57
2023-02-24T01:37:45.596Z,77.44
2023-02-24T01:40:56.910Z,77.83
2023-02-24T01:44:02.873Z,78.19
2023-02-24T01:47:05.409Z,79.43
2023-02-24T01:50:09.921Z,79.07
2023-02-24T01:53:14.492Z,78.61
2023-02-24T01:56:18.861Z,78.57
2023-02-24T01:59:22.053Z,78.41
2023-02-24T02:02:25.089Z,79.45
2023-02-24T02:05:27.822Z,78.24
2023-02-24T02:08:30.893Z,78.13
2023-02-24T02:11:35.115Z,78.00
2023-02-24T02:14:39.929Z,78.02
2023-02-24T02:17:48.034Z,77.66
2023-02-24T02:21:19.785Z,77.57
2023-02-24T02:24:48.564Z,76.82
2023-02-24T02:28:13.221Z,77.03
2023-02-24T02:31:39.310Z,77.78
2023-02-24T02:34:50.427Z,78.01
2023-02-24T02:37:57.405Z,77.21
2023-02-24T02:41:03.436Z,76.76
2023-02-24T02:44:09.847Z,77.53
2023-02-24T02:47:14.775Z,77.62
2023-02-24T02:50:21.462Z,77.99
2023-02-24T02:53:28.732Z,77.56
2023-02-24T02:56:34.267Z,76.71
2023-02-24T02:59:38.896Z,77.40
2023-02-24T03:02:48.173Z,76.97
2023-02-24T03:05:56.284Z,77.32
2023-02-24T03:09:01.023Z,77.01
2023-02-24T03:12:08.097Z,77.23
2023-02-24T03:15:12.054Z,76.84
2023-02-24T03:18:19.309Z,77.77
2023-02-24T03:21:30.586Z,77.51
2023-02-24T03:24:36.457Z,77.79
2023-02-24T03:27:44.420Z,77.98
2023-02-24T03:30:52.283Z,78.28
2023-02-24T03:34:00.554Z,77.96
2023-02-24T03:37:04.701Z,77.26
2023-02-24T03:40:11.583Z,77.14
2023-02-24T03:43:17.899Z,77.34
2023-02-24T03:46:20.646Z,77.27
2023-02-24T03:49:25.432Z,77.05
2023-02-24T03:52:36.123Z,76.49
2023-02-24T03:55:43.439Z,76.90
2023-02-24T03:58:55.161Z,77.26
2023-02-24T04:02:00.717Z,78.50
2023-02-24T04:05:10.592Z,79.17
2023-02-24T04:08:15.975Z,78.97
2023-02-24T04:11:24.103Z,78.99
2023-02-24T04:14:32.743Z,78.24
2023-02-24T04:17:39.649Z,78.29
2023-02-24T04:20:49.383Z,78.26
2023-02-24T04:23:53.717Z,78.35
2023-02-24T04:26:59.172Z,78.06
2023-02-24T04:30:04.821Z,78.14
2023-02-24T04:33:08.034Z,77.91
2023-02-24T04:36:12.878Z,77.75
2023-02-24T04:39:18.909Z,79.62
2023-02-24T04:42:22.255Z,80.09
2023-02-24T04:45:27.341Z,80.98
2023-02-24T04:48:30.128Z,80.41
2023-02-24T04:51:33.948Z,80.12
2023-02-24T04:54:39.558Z,79.41
2023-02-24T04:57:42.162Z,78.96
2023-02-24T05:00:44.700Z,79.07
2023-02-24T05:03:47.716Z,79.09
2023-02-24T05:06:50.389Z,79.75
2023-02-24T05:09:54.987Z,79.57
2023-02-24T05:13:00.841Z,79.16
2023-02-24T05:16:08.164Z,79.42
2023-02-24T05:19:28.633Z,79.36
2023-02-24T05:22:31.324Z,79.35
2023-02-24T05:25:37.703Z,79.28
2023-02-24T05:28:41.733Z,78.60
2023-02-24T05:31:44.920Z,79.08
2023-02-24T05:34:48.064Z,79.68
2023-02-24T05:37:51.667Z,79.63
2023-02-24T05:41:04.588Z,79.41
2023-02-24T05:44:09.539Z,78.74
2023-02-24T05:47:12.318Z,78.08
2023-02-24T05:50:14.921Z,78.11
2023-02-24T05:53:19.023Z,77.81
2023-02-24T05:56:23.455Z,77.94
2023-02-24T05:59:29.081Z,77.47
2023-02-24T06:02:37.737Z,77.41
2023-02-24T06:05:42.505Z,78.42
2023-02-24T06:08:50.281Z,78.06
2023-02-24T06:11:54.461Z,77.34
2023-02-24T06:14:58.089Z,77.11
2023-02-24T06:18:02.050Z,77.40
2023-02-24T06:21:07.265Z,77.38
2023-02-24T06:24:14.371Z,77.23
2023-02-24T06:27:21.451Z,77.20
2023-02-24T06:30:24.847Z,77.16
2023-02-24T06:33:27.511Z,76.92
2023-02-24T06:36:30.068Z,77.20
2023-02-24T06:39:36.251Z,77.64
2023-02-24T06:42:40.653Z,77.51
2023-02-24T06:45:43.276Z,77.98
2023-02-24T06:48:48.123Z,77.43
2023-02-24T06:51:50.735Z,77.46
2023-02-24T06:54:53.291Z,77.68
2023-02-24T06:57:58.915Z,77.46
2023-02-24T07:01:02.693Z,76.41
2023-02-24T07:04:18.807Z,77.09
2023-02-24T07:07:22.597Z,77.37
2023-02-24T07:10:25.164Z,77.11
2023-02-24T07:13:29.923Z,77.35
2023-02-24T07:16:34.635Z,77.05
2023-02-24T07:19:37.486Z,76.73
2023-02-24T07:22:47.619Z,76.62
2023-02-24T07:25:50.438Z,76.78
2023-02-24T07:28:56.684Z,76.17
2023-02-24T07:32:01.425Z,76.54
2023-02-24T07:35:04.601Z,76.74
2023-02-24T07:38:11.586Z,76.63
2023-02-24T07:41:19.171Z,76.65
2023-02-24T07:44:24.526Z,76.18
2023-02-24T07:47:27.276Z,76.30
2023-02-24T07:50:32.823Z,76.62
2023-02-24T07:53:35.572Z,76.22
2023-02-24T07:56:46.111Z,75.54
2023-02-24T07:59:50.387Z,76.05
2023-02-24T08:02:56.677Z,76.97
2023-02-24T08:06:12.911Z,77.07
2023-02-24T08:09:20.517Z,76.43
2023-02-24T08:12:23.615Z,75.73
2023-02-24T08:16:02.732Z,77.10
2023-02-24T08:19:05.392Z,76.25
2023-02-24T08:22:20.172Z,76.19
2023-02-24T08:25:25.770Z,75.80
2023-02-24T08:28:28.379Z,75.45
2023-02-24T08:31:32.785Z,74.91
2023-02-24T08:34:35.885Z,73.52
2023-02-24T08:37:40.507Z,69.41
2023-02-24T08:40:51.589Z,67.71
2023-02-24T08:43:54.285Z,65.14
2023-02-24T08:47:00.704Z,64.28
2023-02-24T08:50:07.125Z,62.22
2023-02-24T08:53:10.612Z,62.52
2023-02-24T08:56:24.257Z,60.04
2023-02-24T08:59:38.856Z,60.02
2023-02-24T09:02:42.931Z,61.39
2023-02-24T09:05:46.239Z,61.96
2023-02-24T09:08:49.229Z,62.08
2023-02-24T09:11:56.557Z,64.61
2023-02-24T09:15:04.579Z,66.56
2023-02-24T09:18:08.601Z,66.21
2023-02-24T09:21:38.700Z,66.34
2023-02-24T09:24:41.498Z,65.92
2023-02-24T09:27:44.251Z,66.56
2023-02-24T09:30:53.448Z,65.77
2023-02-24T09:34:01.737Z,65.75
2023-02-24T09:37:05.370Z,66.23
2023-02-24T09:40:39.530Z,66.41
2023-02-24T09:43:48.290Z,65.52
2023-02-24T09:46:54.849Z,65.34
2023-02-24T09:50:04.535Z,64.63
2023-02-24T09:53:28.653Z,65.18
2023-02-24T09:56:42.479Z,61.87
2023-02-24T10:00:02.359Z,59.64
2023-02-24T10:03:19.637Z,57.52
2023-02-24T10:06:35.179Z,56.12
2023-02-24T10:09:40.649Z,55.44
2023-02-24T10:12:43.523Z,56.75
2023-02-24T10:16:06.234Z,59.21
2023-02-24T10:19:19.616Z,61.90
2023-02-24T10:22:30.564Z,62.00
2023-02-24T10:25:53.809Z,60.92
2023-02-24T10:29:00.530Z,63.69
2023-02-24T10:32:23.990Z,63.96
2023-02-24T10:35:33.738Z,63.95
2023-02-24T10:38:40.807Z,66.34
2023-02-24T10:41:48.041Z,65.44
2023-02-24T10:45:01.926Z,64.17
2023-02-24T10:48:08.924Z,63.08
2023-02-24T10:51:20.575Z,63.94
2023-02-24T10:54:45.249Z,62.07
2023-02-24T10:57:59.030Z,62.26
2023-02-24T11:01:18.463Z,61.76
2023-02-24T11:04:33.478Z,61.12
2023-02-24T11:07:45.423Z,61.68
2023-02-24T11:11:07.107Z,63.34
2023-02-24T11:14:34.237Z,60.69
2023-02-24T11:17:37.599Z,60.00
2023-02-24T11:20:49.487Z,59.97
2023-02-24T11:23:54.036Z,61.95
2023-02-24T11:26:58.537Z,62.23
2023-02-24T11:30:14.901Z,63.34
2023-02-24T11:33:25.800Z,62.59
2023-02-24T11:36:33.248Z,63.18
2023-02-24T11:39:48.560Z,64.05
2023-02-24T11:42:54.772Z,62.67
2023-02-24T11:46:01.403Z,62.79
2023-02-24T11:49:10.186Z,62.11
2023-02-24T11:52:17.026Z,64.57
2023-02-24T11:55:27.347Z,62.69
2023-02-24T11:58:36.682Z,63.03
2023-02-24T12:01:44.366Z,62.04
2023-02-24T12:04:53.141Z,60.39
2023-02-24T12:07:58.822Z,59.53
2023-02-24T12:11:04.981Z,58.13
2023-02-24T12:14:18.306Z,57.24
2023-02-24T12:17:27.210Z,55.98
2023-02-24T12:20:34.966Z,52.97
2023-02-24T12:23:39.281Z,52.33
2023-02-24T12:26:49.008Z,51.52
2023-02-24T12:30:06.514Z,51.24
2023-02-24T12:33:23.256Z,51.63
2023-02-24T12:36:36.329Z,50.19
2023-02-24T12:39:43.150Z,49.20
2023-02-24T12:42:50.100Z,47.56
2023-02-24T12:46:00.080Z,46.99
2023-02-24T12:49:17.871Z,47.16
2023-02-24T12:52:25.893Z,47.88
2023-02-24T12:55:32.276Z,48.26
2023-02-24T12:58:38.246Z,50.24
2023-02-24T13:01:48.469Z,51.63
2023-02-24T13:04:57.094Z,52.36
2023-02-24T13:08:16.025Z,52.09
2023-02-24T13:11:27.536Z,52.88
2023-02-24T13:14:32.971Z,54.00
2023-02-24T13:17:47.952Z,53.13
2023-02-24T13:21:03.598Z,52.59
2023-02-24T13:24:07.257Z,52.94
2023-02-24T13:27:22.484Z,52.69
2023-02-24T13:30:28.163Z,52.46
2023-02-24T13:33:33.919Z,52.76
2023-02-24T13:36:47.395Z,52.54
2023-02-24T13:39:52.914Z,53.59
2023-02-24T13:43:00.929Z,54.25
2023-02-24T13:46:05.730Z,54.77
2023-02-24T13:49:23.842Z,53.77
2023-02-24T13:52:37.873Z,55.08
2023-02-24T13:55:52.295Z,55.38
2023-02-24T13:59:06.039Z,55.95
2023-02-24T14:02:13.638Z,54.92
2023-02-24T14:05:22.356Z,54.83
2023-02-24T14:08:28.931Z,57.08
2023-02-24T14:11:34.902Z,58.51
2023-02-24T14:14:37.768Z,59.92
2023-02-24T14:17:40.415Z,60.47
2023-02-24T14:20:45.276Z,61.21
2023-02-24T14:23:57.126Z,62.79
2023-02-24T14:27:00.394Z,63.20
2023-02-24T14:30:02.961Z,62.06
2023-02-24T14:33:07.407Z,61.46
2023-02-24T14:36:17.679Z,62.89
2023-02-24T14:39:22.881Z,63.28
2023-02-24T14:42:26.957Z,62.89
2023-02-24T14:45:30.813Z,62.67
2023-02-24T14:48:33.458Z,61.54
2023-02-24T14:51:37.605Z,60.90
2023-02-24T14:54:44.590Z,61.26
2023-02-24T14:57:51.955Z,61.26
2023-02-24T15:00:56.454Z,61.67
2023-02-24T15:04:01.497Z,61.27
2023-02-24T15:07:07.878Z,62.01
2023-02-24T15:10:21.154Z,62.44
2023-02-24T15:13:31.630Z,63.72
2023-02-24T15:16:39.282Z,62.93
2023-02-24T15:20:08.870Z,64.02
2023-02-24T15:23:27.270Z,62.71
2023-02-24T15:26:32.377Z,62.21
2023-02-24T15:29:35.145Z,62.76
2023-02-24T15:32:38.844Z,63.29
2023-02-24T15:35:49.152Z,62.49
2023-02-24T15:38:54.848Z,63.55
2023-02-24T15:42:08.711Z,62.77
2023-02-24T15:45:23.739Z,62.49
2023-02-24T15:48:39.032Z,62.42
2023-02-24T15:51:44.557Z,63.35
2023-02-24T15:54:48.595Z,65.11
2023-02-24T15:57:58.741Z,65.84
2023-02-24T16:01:02.554Z,65.63
2023-02-24T16:04:05.732Z,67.52
2023-02-24T16:07:10.921Z,69.28
2023-02-24T16:10:19.517Z,69.15
2023-02-24T16:13:24.415Z,69.52
2023-02-24T16:16:27.782Z,70.44
2023-02-24T16:19:38.088Z,71.37
2023-02-24T16:22:40.779Z,72.10
2023-02-24T16:25:46.292Z,72.13
2023-02-24T16:28:53.457Z,72.87
2023-02-24T16:31:56.297Z,73.10
2023-02-24T16:34:59.461Z,72.76
2023-02-24T16:38:02.405Z,73.48
2023-02-24T16:41:06.838Z,73.01
2023-02-24T16:44:10.699Z,73.58
2023-02-24T16:47:17.884Z,73.95
2023-02-24T16:50:24.168Z,73.79
2023-02-24T16:53:26.879Z,74.64
2023-02-24T16:56:30.808Z,74.72
2023-02-24T16:59:33.694Z,75.23
2023-02-24T17:02:36.325Z,75.36
2023-02-24T17:05:39.167Z,75.23
2023-02-24T17:08:43.680Z,76.30
2023-02-24T17:11:48.078Z,76.02
2023-02-24T17:14:50.742Z,75.25
2023-02-24T17:17:53.600Z,75.36
2023-02-24T17:20:56.403Z,75.19
2023-02-24T17:23:59.379Z,74.99
2023-02-24T17:27:04.251Z,74.78
2023-02-24T17:30:08.319Z,74.57
2023-02-24T17:33:11.104Z,74.86
2023-02-24T17:36:13.752Z,74.15
2023-02-24T17:39:16.364Z,73.83
2023-02-24T17:42:20.358Z,73.67
2023-02-24T17:45:23.056Z,73.28
2023-02-24T17:48:26.003Z,72.59
2023-02-24T17:51:29.700Z,73.26
2023-02-24T17:54:32.176Z,72.98
2023-02-24T17:57:37.349Z,72.98
2023-02-24T18:00:40.225Z,73.28
2023-02-24T18:03:42.934Z,72.60
2023-02-24T18:06:45.655Z,72.86
2023-02-24T18:09:48.280Z,72.95
2023-02-24T18:12:52.469Z,72.67
2023-02-24T18:15:55.392Z,71.89
2023-02-24T18:18:58.026Z,71.76
2023-02-24T18:22:00.926Z,70.57
2023-02-24T18:25:03.600Z,70.99
2023-02-24T18:28:07.826Z,69.61
2023-02-24T18:31:12.553Z,69.71
2023-02-24T18:34:15.406Z,69.76
2023-02-24T18:37:17.945Z,70.33
2023-02-24T18:40:20.879Z,70.47
2023-02-24T18:43:25.157Z,70.20
2023-02-24T18:46:28.411Z,69.30
2023-02-24T18:49:31.385Z,69.76
2023-02-24T18:52:34.695Z,68.99
2023-02-24T18:55:37.279Z,69.27
2023-02-24T18:58:41.657Z,69.95
2023-02-24T19:01:44.469Z,68.67
2023-02-24T19:04:47.745Z,69.33
2023-02-24T19:07:50.607Z,68.58
2023-02-24T19:10:53.565Z,68.09
2023-02-24T19:13:58.957Z,67.72
2023-02-24T19:17:03.479Z,66.76
2023-02-24T19:20:07.459Z,65.88
2023-02-24T19:23:10.072Z,65.37
2023-02-24T19:26:17.535Z,64.55
2023-02-24T19:29:22.283Z,64.76
2023-02-24T19:32:25.494Z,64.39
2023-02-24T19:35:28.064Z,63.65
2023-02-24T19:38:30.745Z,63.73
2023-02-24T19:41:33.598Z,64.25
2023-02-24T19:44:37.889Z,62.97
2023-02-24T19:47:42.647Z,63.04
2023-02-24T19:50:46.181Z,63.36
2023-02-24T19:53:52.343Z,63.99
2023-02-24T19:56:58.042Z,63.52
2023-02-24T20:00:04.052Z,63.25
2023-02-24T20:03:06.840Z,64.32
2023-02-24T20:06:17.875Z,64.42
2023-02-24T20:09:22.185Z,63.92
2023-02-24T20:12:26.832Z,63.91
2023-02-24T20:18:35.260Z,63.95
2023-02-24T20:21:39.845Z,64.17
2023-02-24T20:24:42.751Z,64.31
2023-02-24T20:27:46.369Z,64.33
2023-02-24T20:30:50.800Z,64.01
2023-02-24T20:33:54.200Z,63.70
2023-02-24T20:36:56.852Z,63.54
2023-02-24T20:40:00.120Z,63.63
2023-02-24T20:43:02.676Z,63.90
2023-02-24T20:46:13.753Z,64.01
2023-02-24T20:49:16.391Z,65.42
2023-02-24T20:52:19.039Z,65.96
2023-02-24T20:55:24.212Z,65.26
2023-02-24T20:58:26.873Z,65.48
2023-02-24T21:01:31.842Z,66.44
2023-02-24T21:04:34.480Z,66.97
2023-02-24T21:07:38.192Z,66.12
2023-02-24T21:10:41.051Z,65.93
2023-02-24T21:13:44.656Z,66.14
2023-02-24T21:16:49.618Z,67.03
2023-02-24T21:19:52.254Z,67.78
2023-02-24T21:22:54.886Z,65.79
2023-02-24T21:25:57.715Z,68.14
2023-02-24T21:29:00.273Z,70.32
2023-02-24T21:32:04.378Z,72.04
2023-02-24T21:35:07.216Z,72.04
2023-02-24T21:38:09.984Z,72.76
2023-02-24T21:41:14.725Z,73.61
2023-02-24T21:44:17.646Z,73.88
2023-02-24T21:47:21.574Z,74.51
2023-02-24T21:50:24.433Z,75.05
2023-02-24T21:53:28.114Z,76.04
2023-02-24T21:56:31.032Z,76.01
2023-02-24T21:59:33.864Z,77.26
2023-02-24T22:02:38.039Z,77.63
2023-02-24T22:05:40.613Z,78.75
2023-02-24T22:08:45.518Z,78.13
2023-02-24T22:11:49.583Z,78.78
2023-02-24T22:14:52.036Z,79.22
2023-02-24T22:17:55.949Z,79.38
2023-02-24T22:20:58.563Z,78.92
2023-02-24T22:24:02.971Z,79.09
2023-02-24T22:27:05.629Z,79.31
2023-02-24T22:30:09.845Z,79.87
2023-02-24T22:33:13.905Z,80.14
2023-02-24T22:36:17.971Z,79.88
2023-02-24T22:39:20.690Z,79.42
2023-02-24T22:42:23.229Z,79.10
2023-02-24T22:45:25.798Z,78.84
2023-02-24T22:48:30.664Z,79.16
2023-02-24T22:51:33.281Z,80.05
2023-02-24T22:54:35.873Z,80.45
2023-02-24T22:57:38.565Z,80.09
2023-02-24T23:00:41.570Z,79.68
2023-02-24T23:03:46.803Z,79.86
2023-02-24T23:06:49.359Z,79.62
2023-02-24T23:09:53.362Z,79.97
2023-02-24T23:12:56.979Z,80.02
2023-02-24T23:16:03.305Z,79.72
2023-02-24T23:19:10.525Z,79.98
2023-02-24T23:22:14.624Z,80.61
2023-02-24T23:25:17.462Z,79.73
2023-02-24T23:28:20.191Z,78.85
2023-02-24T23:31:22.959Z,78.57
2023-02-24T23:34:27.195Z,77.84
2023-02-24T23:37:29.948Z,78.62
2023-02-24T23:40:44.339Z,78.43
2023-02-24T23:43:51.676Z,77.09
2023-02-24T23:46:54.661Z,76.99
2023-02-24T23:49:58.874Z,77.61
2023-02-24T23:53:01.717Z,77.00
2023-02-24T23:56:08.625Z,77.00
2023-02-24T23:59:11.870Z,77.28
